Главная страница
METAR-TAF:

METAR-TAF

Аэропорты :

Ярославль, Россия

Туношна

широта: 57-33-38N, долгота: 040-09-27E, высота над уровнем моря: 87 м

Текущие метеонаблюдения

Эта сводка был подготовлена 26 минут назад, в 07:30 UTC
Ветер 2 Узел от северо-северо-восточный
Температура -1°C
Влажность 100%
Давление 1012 hPa
Видимость: 0800 м
переохлажденный туман

METAR: UUDL 140730Z 02001MPS 0800 R23/1100N FZFG VV003 M01/M01 Q1012 R23/790038 NOSIG RMK QBB090 QFE751

Время: 10:56 (07:56 UTC)

Прогноз

Эта сводка был подготовлена 1 час и 7 минут назад, в 06:49 UTC
Прогноз действительный с 14-го 06 UTC до 15-го 06 UTC
Ветер 6 Узел от восточный
Видимость: 5000 м
Рассеянная облачность на высоте 1100 фута
небольшой снег, дымка
временами
С 14-го 06 UTC до 14-го 18 UTC
Видимость: 0700 м
на высоте 200 фута
переохлажденный туман

TAF: UUDL 140649Z 1406/1506 08003MPS 5000 -SN BR BKN011 TEMPO 1406/1418 0700 FZFG VV002

Метеонаблюдения и прогнозы для более 4000 аэропортов (сводки METAR и TAF).

Имеющиеся станции представлены на карте желтыми и красными точками.

Чтобы увидеть название станции, наведите на нее мышь.

Затем щелкните, чтобы увидеть метеонаблюдения и метеопрогнозы.

Управление картой: чтобы увеличить масштаб, щелкните зеленые кнопки с черным крестиком; чтобы уменьшить масштаб, щелкните зеленую кнопку с тире; для просмотра соседних карт щелкайте зеленые стрелки.


METAR-TAF: